AirNav   ATP
 
 577 users online  

0S0 Lind Airport
Lind, Washington, USA

GOING TO LIND?


FAA INFORMATION EFFECTIVE 20 JULY 2017

Location

FAA Identifier: 0S0
Lat/Long: 46-58-36.6310N / 118-35-14.0320W
46-58.610517N / 118-35.233867W
46.9768419 / -118.5872311
(estimated)
Elevation: 1507 ft. / 459 m (estimated)
Variation: 19E (1985)
From city: 2 miles NE of LIND, WA
Time zone: UTC -7 (UTC -8 during Standard Time)
Zip code: 99341

Airport Operations

Airport use: Open to the public
Activation date: 04/1940
Control tower: no
ARTCC: SEATTLE CENTER
FSS: SEATTLE FLIGHT SERVICE STATION
NOTAMs facility: SEA (NOTAM-D service available)
Attendance: UNATNDD
Wind indicator: yes
Segmented circle: no
Beacon: white-green (lighted land airport)
ARPT BCN OTS INDEFLY. Operates sunset to sunrise.

Airport Communications

CTAF: 122.9

Nearby radio navigation aids

VOR radial/distance  VOR name  Freq  Var
MWHr097/32.9MOSES LAKE VOR/DME115.0018E

Airport Services

Parking: tiedowns
Airframe service: NONE
Powerplant service: NONE
Bottled oxygen: NONE
Bulk oxygen: NONE

Runway Information

Runway 5/23

Dimensions: 3197 x 50 ft. / 974 x 15 m
EAST END OF RY HAS 800 X 50' DIRT GRADED SAFETY AREA.
Surface: asphalt, in good condition
Runway edge lights: medium intensity
MIRL OTS INDEF.
RUNWAY 5  RUNWAY 23
Latitude: 46-58.494083N46-58.726933N
Longitude: 118-35.578383W118-34.889333W
Elevation: 1478.0 ft.
Gradient: 0.4%0.4%
Traffic pattern: leftleft
Runway heading: 045 magnetic, 064 true225 magnetic, 244 true
Markings: basic, in fair condition, in fair condition
Obstructions: none
RY 05 +3' FENCE 100' FM THLD.
17 ft. hill, 902 ft. from runway, 41:1 slope to clear

Airport Ownership and Management from official FAA records

Ownership: Publicly-owned
Owner: TOWN OF LIND
BOX F
LIND, WA 99341
Phone 509-677-3241
Manager: JAMIE SCHMUNK
PO BOX 538
LIND, WA 99341
Phone 509-677-3241

Airport Operational Statistics

Aircraft based on the field: 3
Single engine airplanes: 3
    
Aircraft operations: avg 22/day *
88% local general aviation
12% transient general aviation
* for 12-month period ending 31 December 2013

Instrument Procedures

There are no published instrument procedures at 0S0.

Some nearby airports with instrument procedures:

KMWH - Grant County International Airport (33 nm NW)
KEPH - Ephrata Municipal Airport (43 nm NW)
2S8 - Wilbur Airport (47 nm N)
KPSC - Tri-Cities Airport (48 nm SW)
KRLD - Richland Airport (50 nm SW)
 
Loc | Ops | Rwys | IFR | FBO | Links
Com | Nav | Svcs | Stats | Notes


 
Area around 0S0 (Lind Airport)
 
Road maps at: MapQuest Bing Google
 
Aerial photo
WARNING: Photo may not be current or correct
Aerial photo of 0S0 (Lind Airport)
Photo by David Wyatt
Photo taken 22-Jun-2007
looking northeast down runway 5

Do you have a better or more recent aerial photo of Lind Airport that you would like to share? If so, please send us your photo.

 
Sectional chart

 
Airport distance calculator
Flying to Lind Airport? Find the distance to fly.

From to 0S0

Sunrise and sunset
Times for 21-Jul-2017
 Local
(UTC-7)
 Zulu
(UTC)
Morning civil twilight04:4511:45
Sunrise05:2212:22
Sunset20:3903:39
Evening civil twilight21:1704:17

Current date and time
Zulu (UTC)  21-Jul-2017 11:05:57
Local (UTC-7)  21-Jul-2017 04:05:57
 
METAR
KMWH 
33nm NW 
211052Z AUTO 26008KT 10SM CLR 15/07 A3004 RMK AO2 SLP166 T01500067
KEPH 
43nm NW 
211053Z AUTO 31010KT 10SM CLR 17/03 A3003 RMK AO2 SLP161 T01670028
KPSC 
48nm SW 
211053Z AUTO 00000KT 10SM CLR 12/09 A3006 RMK AO2 SLP177 T01220089
KRLD 
50nm SW 
211055Z AUTO 00000KT 10SM CLR 16/09 A3005 RMK AO2 T01550089
TAF
KMWH 
33nm NW 
210524Z 2106/2206 27007KT P6SM FEW200 FM211900 21008KT P6SM SCT150 BKN250
NOTAMs
Click for the latest NOTAMs
NOTAMs are issued by the DoD/FAA and will open in a separate window not controlled by AirNav.

 

 
 

Would you like to see your business listed on this page?

 If your business provides an interesting product or service to pilots, flight crews, aircraft, or users of the Lind Airport, you should consider listing it here.  To start the listing process, click on the button below
 
Add a business
 

Other Pages about Lind Airport

Update a link
 
Copyright © AirNav, LLC. All rights reserved. Privacy Policy  Contact